sensor_id;sensor_type;location;lat;lon;timestamp;P1;durP1;ratioP1;P2;durP2;ratioP2
73382;SDS011;61600;48.126;11.542;2022-09-11T00:01:04;1.10;;;0.80;;
73382;SDS011;61600;48.126;11.542;2022-09-11T00:03:31;7.40;;;0.95;;
73382;SDS011;61600;48.126;11.542;2022-09-11T00:06:01;1.15;;;0.80;;
73382;SDS011;61600;48.126;11.542;2022-09-11T00:08:26;4.57;;;0.77;;
73382;SDS011;61600;48.126;11.542;2022-09-11T00:10:52;2.03;;;0.80;;
73382;SDS011;61600;48.126;11.542;2022-09-11T00:13:18;2.85;;;0.80;;
73382;SDS011;61600;48.126;11.542;2022-09-11T00:15:46;4.60;;;0.80;;
73382;SDS011;61600;48.126;11.542;2022-09-11T00:18:12;2.60;;;0.90;;
73382;SDS011;61600;48.126;11.542;2022-09-11T00:20:39;1.77;;;0.77;;
73382;SDS011;61600;48.126;11.542;2022-09-11T00:23:04;1.52;;;0.65;;
73382;SDS011;61600;48.126;11.542;2022-09-11T00:25:34;2.60;;;1.02;;
73382;SDS011;61600;48.126;11.542;2022-09-11T00:27:59;4.63;;;1.70;;
73382;SDS011;61600;48.126;11.542;2022-09-11T00:30:25;1.40;;;0.73;;
73382;SDS011;61600;48.126;11.542;2022-09-11T00:32:51;2.13;;;0.75;;
73382;SDS011;61600;48.126;11.542;2022-09-11T00:35:16;1.88;;;0.70;;
73382;SDS011;61600;48.126;11.542;2022-09-11T00:37:42;2.47;;;0.70;;
73382;SDS011;61600;48.126;11.542;2022-09-11T00:40:08;2.40;;;0.80;;
73382;SDS011;61600;48.126;11.542;2022-09-11T00:42:33;1.33;;;0.90;;
73382;SDS011;61600;48.126;11.542;2022-09-11T00:45:00;0.88;;;0.70;;
73382;SDS011;61600;48.126;11.542;2022-09-11T00:47:26;2.30;;;0.80;;
73382;SDS011;61600;48.126;11.542;2022-09-11T00:49:54;4.03;;;0.85;;
73382;SDS011;61600;48.126;11.542;2022-09-11T00:52:32;3.60;;;0.80;;
73382;SDS011;61600;48.126;11.542;2022-09-11T00:55:00;2.20;;;0.68;;
73382;SDS011;61600;48.126;11.542;2022-09-11T00:57:28;2.75;;;1.77;;
73382;SDS011;61600;48.126;11.542;2022-09-11T00:59:54;2.88;;;0.80;;
73382;SDS011;61600;48.126;11.542;2022-09-11T01:02:25;2.10;;;0.68;;
73382;SDS011;61600;48.126;11.542;2022-09-11T01:04:52;1.83;;;0.70;;
73382;SDS011;61600;48.126;11.542;2022-09-11T01:07:19;2.58;;;0.82;;
73382;SDS011;61600;48.126;11.542;2022-09-11T01:09:45;2.97;;;0.70;;
73382;SDS011;61600;48.126;11.542;2022-09-11T01:14:45;2.92;;;1.00;;
73382;SDS011;61600;48.126;11.542;2022-09-11T01:17:31;1.42;;;0.77;;
73382;SDS011;61600;48.126;11.542;2022-09-11T01:25:26;1.35;;;0.75;;
73382;SDS011;61600;48.126;11.542;2022-09-11T01:27:54;2.80;;;0.80;;
73382;SDS011;61600;48.126;11.542;2022-09-11T01:30:21;1.58;;;0.63;;
73382;SDS011;61600;48.126;11.542;2022-09-11T01:38:13;3.97;;;0.95;;
73382;SDS011;61600;48.126;11.542;2022-09-11T01:40:45;1.60;;;0.98;;
73382;SDS011;61600;48.126;11.542;2022-09-11T01:45:40;3.30;;;1.70;;
73382;SDS011;61600;48.126;11.542;2022-09-11T01:50:31;1.97;;;0.80;;
73382;SDS011;61600;48.126;11.542;2022-09-11T01:52:58;3.58;;;0.95;;
73382;SDS011;61600;48.126;11.542;2022-09-11T01:55:35;3.53;;;0.98;;
73382;SDS011;61600;48.126;11.542;2022-09-11T01:58:03;2.22;;;0.85;;
73382;SDS011;61600;48.126;11.542;2022-09-11T02:00:30;1.70;;;0.90;;
73382;SDS011;61600;48.126;11.542;2022-09-11T02:03:00;2.65;;;0.90;;
73382;SDS011;61600;48.126;11.542;2022-09-11T02:05:29;1.33;;;0.90;;
73382;SDS011;61600;48.126;11.542;2022-09-11T02:08:04;1.20;;;0.70;;
73382;SDS011;61600;48.126;11.542;2022-09-11T02:10:42;2.00;;;0.70;;
73382;SDS011;61600;48.126;11.542;2022-09-11T02:13:26;2.47;;;0.88;;
73382;SDS011;61600;48.126;11.542;2022-09-11T02:15:56;3.53;;;0.70;;
73382;SDS011;61600;48.126;11.542;2022-09-11T02:18:24;3.05;;;0.80;;
73382;SDS011;61600;48.126;11.542;2022-09-11T02:20:51;1.63;;;0.90;;
73382;SDS011;61600;48.126;11.542;2022-09-11T02:23:17;4.85;;;1.00;;
73382;SDS011;61600;48.126;11.542;2022-09-11T02:25:43;2.78;;;0.70;;
73382;SDS011;61600;48.126;11.542;2022-09-11T02:28:09;2.03;;;0.75;;
73382;SDS011;61600;48.126;11.542;2022-09-11T02:30:35;5.50;;;0.90;;
73382;SDS011;61600;48.126;11.542;2022-09-11T02:35:28;3.03;;;0.53;;
73382;SDS011;61600;48.126;11.542;2022-09-11T02:45:31;4.72;;;0.80;;
73382;SDS011;61600;48.126;11.542;2022-09-11T02:53:11;3.30;;;0.90;;
73382;SDS011;61600;48.126;11.542;2022-09-11T02:58:09;2.45;;;0.70;;
73382;SDS011;61600;48.126;11.542;2022-09-11T03:00:35;4.22;;;0.85;;
73382;SDS011;61600;48.126;11.542;2022-09-11T03:03:00;2.92;;;1.02;;
73382;SDS011;61600;48.126;11.542;2022-09-11T03:05:26;1.42;;;0.77;;
73382;SDS011;61600;48.126;11.542;2022-09-11T03:07:53;1.10;;;0.70;;
73382;SDS011;61600;48.126;11.542;2022-09-11T03:10:19;2.75;;;0.73;;
73382;SDS011;61600;48.126;11.542;2022-09-11T03:12:44;3.45;;;0.85;;
73382;SDS011;61600;48.126;11.542;2022-09-11T03:15:09;1.70;;;0.60;;
73382;SDS011;61600;48.126;11.542;2022-09-11T03:17:35;2.58;;;1.00;;
73382;SDS011;61600;48.126;11.542;2022-09-11T03:20:01;2.90;;;1.10;;
73382;SDS011;61600;48.126;11.542;2022-09-11T03:22:26;1.63;;;0.80;;
73382;SDS011;61600;48.126;11.542;2022-09-11T03:24:51;2.97;;;0.87;;
73382;SDS011;61600;48.126;11.542;2022-09-11T03:27:17;1.80;;;0.93;;
73382;SDS011;61600;48.126;11.542;2022-09-11T03:29:42;1.42;;;0.70;;
73382;SDS011;61600;48.126;11.542;2022-09-11T03:32:09;2.17;;;1.00;;
73382;SDS011;61600;48.126;11.542;2022-09-11T03:34:34;2.25;;;0.88;;
73382;SDS011;61600;48.126;11.542;2022-09-11T03:36:59;1.60;;;0.75;;
73382;SDS011;61600;48.126;11.542;2022-09-11T03:39:26;3.58;;;0.88;;
73382;SDS011;61600;48.126;11.542;2022-09-11T03:41:51;2.42;;;1.00;;
73382;SDS011;61600;48.126;11.542;2022-09-11T03:44:18;1.83;;;0.80;;
73382;SDS011;61600;48.126;11.542;2022-09-11T03:46:43;2.10;;;0.70;;
73382;SDS011;61600;48.126;11.542;2022-09-11T03:49:09;1.30;;;0.70;;
73382;SDS011;61600;48.126;11.542;2022-09-11T03:51:34;1.02;;;0.65;;
73382;SDS011;61600;48.126;11.542;2022-09-11T03:54:01;3.45;;;1.08;;
73382;SDS011;61600;48.126;11.542;2022-09-11T03:56:26;4.93;;;1.02;;
73382;SDS011;61600;48.126;11.542;2022-09-11T03:58:53;1.33;;;0.80;;
73382;SDS011;61600;48.126;11.542;2022-09-11T04:01:19;3.33;;;0.90;;
73382;SDS011;61600;48.126;11.542;2022-09-11T04:03:45;2.25;;;0.82;;
73382;SDS011;61600;48.126;11.542;2022-09-11T04:06:10;1.55;;;0.80;;
73382;SDS011;61600;48.126;11.542;2022-09-11T04:08:38;2.10;;;0.90;;
73382;SDS011;61600;48.126;11.542;2022-09-11T04:13:30;2.05;;;0.80;;
73382;SDS011;61600;48.126;11.542;2022-09-11T04:16:00;3.50;;;0.93;;
73382;SDS011;61600;48.126;11.542;2022-09-11T04:18:27;3.05;;;1.00;;
73382;SDS011;61600;48.126;11.542;2022-09-11T04:20:53;2.33;;;0.80;;
73382;SDS011;61600;48.126;11.542;2022-09-11T04:23:18;2.33;;;0.90;;
73382;SDS011;61600;48.126;11.542;2022-09-11T04:25:44;3.28;;;1.02;;
73382;SDS011;61600;48.126;11.542;2022-09-11T04:28:09;1.70;;;0.80;;
73382;SDS011;61600;48.126;11.542;2022-09-11T04:30:35;2.05;;;0.93;;
73382;SDS011;61600;48.126;11.542;2022-09-11T04:33:03;1.75;;;0.80;;
73382;SDS011;61600;48.126;11.542;2022-09-11T04:35:29;1.35;;;0.80;;
73382;SDS011;61600;48.126;11.542;2022-09-11T04:37:55;3.13;;;0.75;;
73382;SDS011;61600;48.126;11.542;2022-09-11T04:40:20;2.13;;;0.90;;
73382;SDS011;61600;48.126;11.542;2022-09-11T04:42:46;3.38;;;1.00;;
73382;SDS011;61600;48.126;11.542;2022-09-11T04:45:11;2.03;;;0.80;;
73382;SDS011;61600;48.126;11.542;2022-09-11T04:47:38;4.10;;;1.20;;
73382;SDS011;61600;48.126;11.542;2022-09-11T04:50:05;3.20;;;1.10;;
73382;SDS011;61600;48.126;11.542;2022-09-11T04:52:30;0.60;;;0.60;;
73382;SDS011;61600;48.126;11.542;2022-09-11T04:54:57;1.38;;;0.80;;
73382;SDS011;61600;48.126;11.542;2022-09-11T04:57:23;3.20;;;1.17;;
73382;SDS011;61600;48.126;11.542;2022-09-11T04:59:48;2.17;;;0.90;;
73382;SDS011;61600;48.126;11.542;2022-09-11T05:02:15;1.40;;;0.80;;
73382;SDS011;61600;48.126;11.542;2022-09-11T05:04:40;1.13;;;0.85;;
73382;SDS011;61600;48.126;11.542;2022-09-11T05:07:06;2.88;;;0.90;;
73382;SDS011;61600;48.126;11.542;2022-09-11T05:09:31;5.50;;;1.58;;
73382;SDS011;61600;48.126;11.542;2022-09-11T05:11:57;5.28;;;0.98;;
73382;SDS011;61600;48.126;11.542;2022-09-11T05:14:22;2.88;;;1.33;;
73382;SDS011;61600;48.126;11.542;2022-09-11T05:16:48;2.05;;;0.80;;
73382;SDS011;61600;48.126;11.542;2022-09-11T05:19:13;3.17;;;1.00;;
73382;SDS011;61600;48.126;11.542;2022-09-11T05:21:38;2.60;;;1.23;;
73382;SDS011;61600;48.126;11.542;2022-09-11T05:24:04;1.40;;;0.73;;
73382;SDS011;61600;48.126;11.542;2022-09-11T05:26:32;2.28;;;1.08;;
73382;SDS011;61600;48.126;11.542;2022-09-11T05:29:04;3.65;;;1.05;;
73382;SDS011;61600;48.126;11.542;2022-09-11T05:31:31;2.60;;;1.00;;
73382;SDS011;61600;48.126;11.542;2022-09-11T05:33:57;1.70;;;0.88;;
73382;SDS011;61600;48.126;11.542;2022-09-11T05:36:24;1.65;;;0.75;;
73382;SDS011;61600;48.126;11.542;2022-09-11T05:38:51;3.08;;;1.63;;
73382;SDS011;61600;48.126;11.542;2022-09-11T05:41:17;1.75;;;0.77;;
73382;SDS011;61600;48.126;11.542;2022-09-11T05:43:42;2.53;;;1.10;;
73382;SDS011;61600;48.126;11.542;2022-09-11T05:46:12;2.50;;;0.93;;
73382;SDS011;61600;48.126;11.542;2022-09-11T05:48:38;2.30;;;1.02;;
73382;SDS011;61600;48.126;11.542;2022-09-11T05:51:05;1.88;;;1.00;;
73382;SDS011;61600;48.126;11.542;2022-09-11T05:53:33;3.35;;;0.90;;
73382;SDS011;61600;48.126;11.542;2022-09-11T05:58:31;4.05;;;1.48;;
73382;SDS011;61600;48.126;11.542;2022-09-11T06:01:10;2.35;;;0.93;;
73382;SDS011;61600;48.126;11.542;2022-09-11T06:03:36;2.60;;;0.90;;
73382;SDS011;61600;48.126;11.542;2022-09-11T06:06:03;2.20;;;0.95;;
73382;SDS011;61600;48.126;11.542;2022-09-11T06:08:29;3.40;;;1.00;;
73382;SDS011;61600;48.126;11.542;2022-09-11T06:10:57;2.03;;;1.10;;
73382;SDS011;61600;48.126;11.542;2022-09-11T06:13:25;1.15;;;0.82;;
73382;SDS011;61600;48.126;11.542;2022-09-11T06:15:50;2.78;;;1.20;;
73382;SDS011;61600;48.126;11.542;2022-09-11T06:18:16;1.67;;;1.02;;
73382;SDS011;61600;48.126;11.542;2022-09-11T06:20:41;2.30;;;1.00;;
73382;SDS011;61600;48.126;11.542;2022-09-11T06:23:10;1.90;;;0.95;;
73382;SDS011;61600;48.126;11.542;2022-09-11T06:25:35;2.72;;;1.20;;
73382;SDS011;61600;48.126;11.542;2022-09-11T06:28:01;3.67;;;1.30;;
73382;SDS011;61600;48.126;11.542;2022-09-11T06:30:26;2.92;;;1.08;;
73382;SDS011;61600;48.126;11.542;2022-09-11T06:32:52;3.63;;;1.23;;
73382;SDS011;61600;48.126;11.542;2022-09-11T06:35:20;3.83;;;1.15;;
73382;SDS011;61600;48.126;11.542;2022-09-11T06:37:46;3.15;;;1.02;;
73382;SDS011;61600;48.126;11.542;2022-09-11T06:40:11;2.00;;;1.10;;
73382;SDS011;61600;48.126;11.542;2022-09-11T06:42:37;2.95;;;1.08;;
73382;SDS011;61600;48.126;11.542;2022-09-11T06:45:03;2.97;;;1.10;;
73382;SDS011;61600;48.126;11.542;2022-09-11T06:47:30;4.82;;;0.93;;
73382;SDS011;61600;48.126;11.542;2022-09-11T06:49:55;1.77;;;0.80;;
73382;SDS011;61600;48.126;11.542;2022-09-11T06:52:21;2.50;;;0.93;;
73382;SDS011;61600;48.126;11.542;2022-09-11T06:54:46;1.95;;;0.88;;
73382;SDS011;61600;48.126;11.542;2022-09-11T06:59:39;1.55;;;0.88;;
73382;SDS011;61600;48.126;11.542;2022-09-11T07:02:04;1.73;;;1.00;;
73382;SDS011;61600;48.126;11.542;2022-09-11T07:04:30;1.90;;;0.90;;
73382;SDS011;61600;48.126;11.542;2022-09-11T07:06:55;2.65;;;0.93;;
73382;SDS011;61600;48.126;11.542;2022-09-11T07:09:21;3.38;;;0.85;;
73382;SDS011;61600;48.126;11.542;2022-09-11T07:11:47;3.42;;;1.02;;
73382;SDS011;61600;48.126;11.542;2022-09-11T07:14:12;3.35;;;1.30;;
73382;SDS011;61600;48.126;11.542;2022-09-11T07:16:38;3.72;;;1.50;;
73382;SDS011;61600;48.126;11.542;2022-09-11T07:19:07;4.38;;;1.40;;
73382;SDS011;61600;48.126;11.542;2022-09-11T07:21:35;4.85;;;1.60;;
73382;SDS011;61600;48.126;11.542;2022-09-11T07:24:01;4.53;;;1.30;;
73382;SDS011;61600;48.126;11.542;2022-09-11T07:26:28;3.42;;;1.13;;
73382;SDS011;61600;48.126;11.542;2022-09-11T07:28:54;4.82;;;1.00;;
73382;SDS011;61600;48.126;11.542;2022-09-11T07:31:22;3.22;;;1.23;;
73382;SDS011;61600;48.126;11.542;2022-09-11T07:33:49;2.03;;;1.13;;
73382;SDS011;61600;48.126;11.542;2022-09-11T07:36:15;3.95;;;1.60;;
73382;SDS011;61600;48.126;11.542;2022-09-11T07:41:07;3.80;;;1.55;;
73382;SDS011;61600;48.126;11.542;2022-09-11T07:43:34;4.57;;;1.27;;
73382;SDS011;61600;48.126;11.542;2022-09-11T07:45:59;3.85;;;1.27;;
73382;SDS011;61600;48.126;11.542;2022-09-11T07:48:25;3.63;;;1.80;;
73382;SDS011;61600;48.126;11.542;2022-09-11T07:53:17;2.00;;;1.30;;
73382;SDS011;61600;48.126;11.542;2022-09-11T07:55:43;3.70;;;1.50;;
73382;SDS011;61600;48.126;11.542;2022-09-11T07:58:08;2.65;;;1.50;;
73382;SDS011;61600;48.126;11.542;2022-09-11T08:00:34;3.77;;;1.67;;
73382;SDS011;61600;48.126;11.542;2022-09-11T08:03:00;3.85;;;1.70;;
73382;SDS011;61600;48.126;11.542;2022-09-11T08:05:26;6.28;;;1.85;;
73382;SDS011;61600;48.126;11.542;2022-09-11T08:07:51;2.30;;;1.33;;
73382;SDS011;61600;48.126;11.542;2022-09-11T08:10:17;3.00;;;1.67;;
73382;SDS011;61600;48.126;11.542;2022-09-11T08:12:44;3.25;;;1.77;;
73382;SDS011;61600;48.126;11.542;2022-09-11T08:15:10;4.28;;;2.45;;
73382;SDS011;61600;48.126;11.542;2022-09-11T08:17:35;3.40;;;2.00;;
73382;SDS011;61600;48.126;11.542;2022-09-11T08:20:01;3.85;;;1.80;;
73382;SDS011;61600;48.126;11.542;2022-09-11T08:22:27;5.53;;;2.38;;
73382;SDS011;61600;48.126;11.542;2022-09-11T08:24:52;6.65;;;2.00;;
73382;SDS011;61600;48.126;11.542;2022-09-11T08:27:18;5.28;;;2.10;;
73382;SDS011;61600;48.126;11.542;2022-09-11T08:29:44;5.40;;;2.55;;
73382;SDS011;61600;48.126;11.542;2022-09-11T08:32:10;6.80;;;2.65;;
73382;SDS011;61600;48.126;11.542;2022-09-11T08:34:37;5.20;;;2.40;;
73382;SDS011;61600;48.126;11.542;2022-09-11T08:37:03;3.78;;;2.10;;
73382;SDS011;61600;48.126;11.542;2022-09-11T08:39:28;5.82;;;2.75;;
73382;SDS011;61600;48.126;11.542;2022-09-11T08:41:58;3.28;;;1.70;;
73382;SDS011;61600;48.126;11.542;2022-09-11T08:46:53;5.15;;;2.38;;
73382;SDS011;61600;48.126;11.542;2022-09-11T08:49:27;4.18;;;2.58;;
73382;SDS011;61600;48.126;11.542;2022-09-11T08:51:57;5.22;;;2.47;;
73382;SDS011;61600;48.126;11.542;2022-09-11T08:54:32;6.28;;;2.28;;
73382;SDS011;61600;48.126;11.542;2022-09-11T08:57:04;9.73;;;2.75;;
73382;SDS011;61600;48.126;11.542;2022-09-11T08:59:52;5.30;;;2.03;;
73382;SDS011;61600;48.126;11.542;2022-09-11T09:02:25;5.35;;;2.50;;
73382;SDS011;61600;48.126;11.542;2022-09-11T09:04:59;4.45;;;2.28;;
73382;SDS011;61600;48.126;11.542;2022-09-11T09:07:38;5.38;;;1.77;;
73382;SDS011;61600;48.126;11.542;2022-09-11T09:12:55;6.72;;;2.60;;
73382;SDS011;61600;48.126;11.542;2022-09-11T09:20:18;4.45;;;2.30;;
73382;SDS011;61600;48.126;11.542;2022-09-11T09:25:15;8.02;;;2.15;;
73382;SDS011;61600;48.126;11.542;2022-09-11T09:27:53;4.35;;;2.45;;
73382;SDS011;61600;48.126;11.542;2022-09-11T09:30:21;4.45;;;2.80;;
73382;SDS011;61600;48.126;11.542;2022-09-11T09:32:53;3.63;;;2.33;;
73382;SDS011;61600;48.126;11.542;2022-09-11T09:38:14;4.55;;;2.70;;
73382;SDS011;61600;48.126;11.542;2022-09-11T09:40:52;6.10;;;2.70;;
73382;SDS011;61600;48.126;11.542;2022-09-11T09:43:26;6.60;;;3.60;;
73382;SDS011;61600;48.126;11.542;2022-09-11T09:46:01;5.18;;;3.05;;
73382;SDS011;61600;48.126;11.542;2022-09-11T09:48:31;6.13;;;3.38;;
73382;SDS011;61600;48.126;11.542;2022-09-11T09:50:57;7.22;;;3.88;;
73382;SDS011;61600;48.126;11.542;2022-09-11T09:53:43;5.72;;;3.30;;
73382;SDS011;61600;48.126;11.542;2022-09-11T09:56:11;7.10;;;3.95;;
73382;SDS011;61600;48.126;11.542;2022-09-11T09:58:41;6.35;;;2.72;;
73382;SDS011;61600;48.126;11.542;2022-09-11T10:06:35;5.97;;;2.67;;
73382;SDS011;61600;48.126;11.542;2022-09-11T10:09:00;4.80;;;2.65;;
73382;SDS011;61600;48.126;11.542;2022-09-11T10:11:26;5.25;;;3.08;;
73382;SDS011;61600;48.126;11.542;2022-09-11T10:13:53;4.63;;;2.60;;
73382;SDS011;61600;48.126;11.542;2022-09-11T10:16:20;4.90;;;3.20;;
73382;SDS011;61600;48.126;11.542;2022-09-11T10:18:46;8.18;;;3.00;;
73382;SDS011;61600;48.126;11.542;2022-09-11T10:23:56;7.10;;;2.80;;
73382;SDS011;61600;48.126;11.542;2022-09-11T10:28:47;6.05;;;3.38;;
73382;SDS011;61600;48.126;11.542;2022-09-11T10:31:13;8.57;;;4.05;;
73382;SDS011;61600;48.126;11.542;2022-09-11T10:33:40;5.68;;;3.40;;
73382;SDS011;61600;48.126;11.542;2022-09-11T10:36:09;8.18;;;4.00;;
73382;SDS011;61600;48.126;11.542;2022-09-11T10:41:13;6.57;;;3.88;;
73382;SDS011;61600;48.126;11.542;2022-09-11T10:43:51;7.28;;;4.40;;
73382;SDS011;61600;48.126;11.542;2022-09-11T10:48:42;6.97;;;3.85;;
73382;SDS011;61600;48.126;11.542;2022-09-11T10:51:15;7.07;;;3.28;;
73382;SDS011;61600;48.126;11.542;2022-09-11T10:53:47;4.90;;;3.28;;
73382;SDS011;61600;48.126;11.542;2022-09-11T10:56:15;6.43;;;3.47;;
73382;SDS011;61600;48.126;11.542;2022-09-11T10:58:41;7.28;;;3.90;;
73382;SDS011;61600;48.126;11.542;2022-09-11T11:01:09;7.78;;;3.95;;
73382;SDS011;61600;48.126;11.542;2022-09-11T11:03:34;6.05;;;3.45;;
73382;SDS011;61600;48.126;11.542;2022-09-11T11:08:34;5.95;;;3.60;;
73382;SDS011;61600;48.126;11.542;2022-09-11T11:31:36;4.78;;;2.88;;
73382;SDS011;61600;48.126;11.542;2022-09-11T11:34:08;5.72;;;3.35;;
73382;SDS011;61600;48.126;11.542;2022-09-11T11:36:42;6.10;;;3.25;;
73382;SDS011;61600;48.126;11.542;2022-09-11T11:41:39;7.07;;;4.15;;
73382;SDS011;61600;48.126;11.542;2022-09-11T11:44:10;5.32;;;3.83;;
73382;SDS011;61600;48.126;11.542;2022-09-11T11:46:46;6.43;;;3.50;;
73382;SDS011;61600;48.126;11.542;2022-09-11T11:52:20;6.75;;;4.28;;
73382;SDS011;61600;48.126;11.542;2022-09-11T11:54:45;6.18;;;3.65;;
73382;SDS011;61600;48.126;11.542;2022-09-11T11:57:14;5.60;;;3.88;;
73382;SDS011;61600;48.126;11.542;2022-09-11T12:02:21;6.53;;;4.57;;
73382;SDS011;61600;48.126;11.542;2022-09-11T12:09:49;10.05;;;5.15;;
73382;SDS011;61600;48.126;11.542;2022-09-11T12:12:16;6.47;;;4.53;;
73382;SDS011;61600;48.126;11.542;2022-09-11T12:14:52;8.60;;;5.10;;
73382;SDS011;61600;48.126;11.542;2022-09-11T12:17:27;6.82;;;3.85;;
73382;SDS011;61600;48.126;11.542;2022-09-11T12:25:07;8.82;;;4.13;;
73382;SDS011;61600;48.126;11.542;2022-09-11T12:27:53;6.05;;;3.80;;
73382;SDS011;61600;48.126;11.542;2022-09-11T12:30:51;8.88;;;4.30;;
73382;SDS011;61600;48.126;11.542;2022-09-11T12:33:46;4.80;;;3.13;;
73382;SDS011;61600;48.126;11.542;2022-09-11T12:36:24;5.68;;;3.00;;
73382;SDS011;61600;48.126;11.542;2022-09-11T12:38:59;3.55;;;2.50;;
73382;SDS011;61600;48.126;11.542;2022-09-11T12:41:30;5.30;;;3.22;;
73382;SDS011;61600;48.126;11.542;2022-09-11T12:43:58;3.67;;;2.35;;
73382;SDS011;61600;48.126;11.542;2022-09-11T12:51:20;5.97;;;3.95;;
73382;SDS011;61600;48.126;11.542;2022-09-11T12:53:49;6.63;;;3.65;;
73382;SDS011;61600;48.126;11.542;2022-09-11T12:56:16;6.85;;;3.92;;
73382;SDS011;61600;48.126;11.542;2022-09-11T12:58:43;5.40;;;3.58;;
73382;SDS011;61600;48.126;11.542;2022-09-11T13:01:13;5.78;;;3.22;;
73382;SDS011;61600;48.126;11.542;2022-09-11T13:03:47;5.88;;;3.90;;
73382;SDS011;61600;48.126;11.542;2022-09-11T13:06:14;6.03;;;3.67;;
73382;SDS011;61600;48.126;11.542;2022-09-11T13:08:51;6.38;;;3.50;;
73382;SDS011;61600;48.126;11.542;2022-09-11T13:14:03;6.10;;;3.28;;
73382;SDS011;61600;48.126;11.542;2022-09-11T13:16:28;4.57;;;3.20;;
73382;SDS011;61600;48.126;11.542;2022-09-11T13:21:27;4.05;;;2.78;;
73382;SDS011;61600;48.126;11.542;2022-09-11T13:23:53;5.85;;;3.30;;
73382;SDS011;61600;48.126;11.542;2022-09-11T13:26:25;4.38;;;2.42;;
73382;SDS011;61600;48.126;11.542;2022-09-11T13:28:52;4.43;;;2.97;;
73382;SDS011;61600;48.126;11.542;2022-09-11T13:31:20;5.30;;;3.10;;
73382;SDS011;61600;48.126;11.542;2022-09-11T13:33:50;7.15;;;3.40;;
73382;SDS011;61600;48.126;11.542;2022-09-11T13:36:18;5.60;;;2.90;;
73382;SDS011;61600;48.126;11.542;2022-09-11T13:38:46;5.35;;;3.05;;
73382;SDS011;61600;48.126;11.542;2022-09-11T13:41:16;4.47;;;2.78;;
73382;SDS011;61600;48.126;11.542;2022-09-11T13:43:47;3.58;;;2.58;;
73382;SDS011;61600;48.126;11.542;2022-09-11T13:48:39;6.68;;;3.05;;
73382;SDS011;61600;48.126;11.542;2022-09-11T13:51:05;3.92;;;2.13;;
73382;SDS011;61600;48.126;11.542;2022-09-11T13:53:31;3.28;;;2.42;;
73382;SDS011;61600;48.126;11.542;2022-09-11T13:55:57;3.80;;;2.42;;
73382;SDS011;61600;48.126;11.542;2022-09-11T13:58:23;3.45;;;2.20;;
73382;SDS011;61600;48.126;11.542;2022-09-11T14:00:51;3.85;;;2.38;;
73382;SDS011;61600;48.126;11.542;2022-09-11T14:03:19;5.07;;;2.75;;
73382;SDS011;61600;48.126;11.542;2022-09-11T14:05:48;4.95;;;2.80;;
73382;SDS011;61600;48.126;11.542;2022-09-11T14:10:47;4.13;;;1.83;;
73382;SDS011;61600;48.126;11.542;2022-09-11T14:13:16;3.95;;;2.00;;
73382;SDS011;61600;48.126;11.542;2022-09-11T14:15:46;4.38;;;2.20;;
73382;SDS011;61600;48.126;11.542;2022-09-11T14:18:20;3.58;;;2.33;;
73382;SDS011;61600;48.126;11.542;2022-09-11T14:20:49;3.75;;;1.92;;
73382;SDS011;61600;48.126;11.542;2022-09-11T14:23:17;4.32;;;1.88;;
73382;SDS011;61600;48.126;11.542;2022-09-11T14:28:35;3.55;;;2.08;;
73382;SDS011;61600;48.126;11.542;2022-09-11T14:31:08;4.75;;;2.97;;
73382;SDS011;61600;48.126;11.542;2022-09-11T14:33:34;3.65;;;2.20;;
73382;SDS011;61600;48.126;11.542;2022-09-11T14:36:03;3.03;;;2.03;;
73382;SDS011;61600;48.126;11.542;2022-09-11T14:38:30;6.03;;;2.28;;
73382;SDS011;61600;48.126;11.542;2022-09-11T14:40:59;4.20;;;2.20;;
73382;SDS011;61600;48.126;11.542;2022-09-11T14:43:27;2.95;;;1.98;;
73382;SDS011;61600;48.126;11.542;2022-09-11T14:45:56;4.20;;;2.20;;
73382;SDS011;61600;48.126;11.542;2022-09-11T14:48:23;2.63;;;1.63;;
73382;SDS011;61600;48.126;11.542;2022-09-11T14:50:48;3.78;;;2.30;;
73382;SDS011;61600;48.126;11.542;2022-09-11T14:53:15;3.55;;;1.60;;
73382;SDS011;61600;48.126;11.542;2022-09-11T14:55:44;2.60;;;1.50;;
73382;SDS011;61600;48.126;11.542;2022-09-11T14:58:10;3.08;;;1.60;;
73382;SDS011;61600;48.126;11.542;2022-09-11T15:00:36;3.38;;;1.50;;
73382;SDS011;61600;48.126;11.542;2022-09-11T15:03:02;2.22;;;1.63;;
73382;SDS011;61600;48.126;11.542;2022-09-11T15:05:28;3.75;;;1.65;;
73382;SDS011;61600;48.126;11.542;2022-09-11T15:07:53;3.75;;;1.88;;
73382;SDS011;61600;48.126;11.542;2022-09-11T15:10:19;2.40;;;1.63;;
73382;SDS011;61600;48.126;11.542;2022-09-11T15:12:45;1.95;;;1.65;;
73382;SDS011;61600;48.126;11.542;2022-09-11T15:15:12;4.90;;;1.70;;
73382;SDS011;61600;48.126;11.542;2022-09-11T15:17:37;3.75;;;1.75;;
73382;SDS011;61600;48.126;11.542;2022-09-11T15:20:03;3.60;;;1.90;;
73382;SDS011;61600;48.126;11.542;2022-09-11T15:22:30;2.85;;;1.95;;
73382;SDS011;61600;48.126;11.542;2022-09-11T15:24:59;2.60;;;1.70;;
73382;SDS011;61600;48.126;11.542;2022-09-11T15:27:24;2.95;;;1.90;;
73382;SDS011;61600;48.126;11.542;2022-09-11T15:29:50;2.95;;;2.00;;
73382;SDS011;61600;48.126;11.542;2022-09-11T15:32:15;3.17;;;2.17;;
73382;SDS011;61600;48.126;11.542;2022-09-11T15:34:45;3.72;;;2.30;;
73382;SDS011;61600;48.126;11.542;2022-09-11T15:37:11;3.60;;;2.22;;
73382;SDS011;61600;48.126;11.542;2022-09-11T15:39:37;3.47;;;2.25;;
73382;SDS011;61600;48.126;11.542;2022-09-11T15:42:03;3.15;;;2.10;;
73382;SDS011;61600;48.126;11.542;2022-09-11T15:44:31;3.22;;;2.15;;
73382;SDS011;61600;48.126;11.542;2022-09-11T15:46:58;2.92;;;1.90;;
73382;SDS011;61600;48.126;11.542;2022-09-11T15:49:24;4.75;;;2.50;;
73382;SDS011;61600;48.126;11.542;2022-09-11T15:51:52;4.07;;;2.20;;
73382;SDS011;61600;48.126;11.542;2022-09-11T15:54:21;4.28;;;2.28;;
73382;SDS011;61600;48.126;11.542;2022-09-11T15:56:47;3.65;;;2.20;;
73382;SDS011;61600;48.126;11.542;2022-09-11T15:59:13;3.80;;;2.17;;
73382;SDS011;61600;48.126;11.542;2022-09-11T16:01:42;5.75;;;2.72;;
73382;SDS011;61600;48.126;11.542;2022-09-11T16:06:35;3.63;;;1.88;;
73382;SDS011;61600;48.126;11.542;2022-09-11T16:09:09;3.22;;;2.00;;
73382;SDS011;61600;48.126;11.542;2022-09-11T16:11:35;3.00;;;2.05;;
73382;SDS011;61600;48.126;11.542;2022-09-11T16:14:01;3.85;;;2.45;;
73382;SDS011;61600;48.126;11.542;2022-09-11T16:16:27;4.50;;;2.10;;
73382;SDS011;61600;48.126;11.542;2022-09-11T16:18:53;3.20;;;2.10;;
73382;SDS011;61600;48.126;11.542;2022-09-11T16:23:45;4.00;;;1.87;;
73382;SDS011;61600;48.126;11.542;2022-09-11T16:26:12;3.08;;;1.92;;
73382;SDS011;61600;48.126;11.542;2022-09-11T16:28:39;3.42;;;2.28;;
73382;SDS011;61600;48.126;11.542;2022-09-11T16:31:07;4.05;;;2.35;;
73382;SDS011;61600;48.126;11.542;2022-09-11T16:33:35;3.72;;;2.15;;
73382;SDS011;61600;48.126;11.542;2022-09-11T16:36:03;3.65;;;2.30;;
73382;SDS011;61600;48.126;11.542;2022-09-11T16:38:30;5.35;;;2.25;;
73382;SDS011;61600;48.126;11.542;2022-09-11T16:41:03;4.85;;;2.45;;
73382;SDS011;61600;48.126;11.542;2022-09-11T16:43:31;3.60;;;2.22;;
73382;SDS011;61600;48.126;11.542;2022-09-11T16:45:57;4.07;;;2.45;;
73382;SDS011;61600;48.126;11.542;2022-09-11T16:48:23;4.43;;;2.40;;
73382;SDS011;61600;48.126;11.542;2022-09-11T16:50:52;3.95;;;2.25;;
73382;SDS011;61600;48.126;11.542;2022-09-11T16:53:19;4.65;;;2.13;;
73382;SDS011;61600;48.126;11.542;2022-09-11T16:55:44;3.95;;;2.70;;
73382;SDS011;61600;48.126;11.542;2022-09-11T16:58:11;3.60;;;2.38;;
73382;SDS011;61600;48.126;11.542;2022-09-11T17:00:38;2.92;;;1.90;;